Time;durP1;ratioP1;P1;durP2;ratioP2;P2;SDS_P1;SDS_P2;PMS_P1;PMS_P2;Temp;Humidity;BMP_temperature;BMP_pressure;BME280_temperature;BME280_humidity;BME280_pressure;Samples;Min_cycle;Max_cycle;Signal;HPM_P1;HPM_P2
2022/05/29 00:00:12;;;;;;;3.33;1.03;;;15.40;71.00;;;;;;5037947;28;20025;-65
2022/05/29 00:02:38;;;;;;;4.00;1.38;;;15.30;71.00;;;;;;5036357;28;20761;-65
2022/05/29 00:05:04;;;;;;;5.47;1.00;;;15.30;71.10;;;;;;5036424;28;20029;-65
2022/05/29 00:07:30;;;;;;;2.38;0.80;;;15.20;71.20;;;;;;5017802;28;20041;-65
2022/05/29 00:09:56;;;;;;;4.18;1.10;;;15.30;71.40;;;;;;5018222;28;20029;-65
2022/05/29 00:12:23;;;;;;;4.60;1.63;;;15.20;71.40;;;;;;5036305;28;20432;-65
2022/05/29 00:14:49;;;;;;;4.22;1.00;;;15.10;71.80;;;;;;5019427;28;20392;-65
2022/05/29 00:17:16;;;;;;;3.90;1.00;;;15.10;72.10;;;;;;5035865;28;20022;-65
2022/05/29 00:19:42;;;;;;;2.22;0.98;;;15.10;72.00;;;;;;5036773;28;20065;-65
2022/05/29 00:22:12;;;;;;;5.50;1.23;;;15.10;71.90;;;;;;5036650;28;20044;-66
2022/05/29 00:24:46;;;;;;;4.35;1.25;;;15.10;71.60;;;;;;5036276;28;20067;-66
2022/05/29 00:27:12;;;;;;;4.25;0.80;;;15.00;71.70;;;;;;5036198;28;20159;-66
2022/05/29 00:29:39;;;;;;;2.72;1.02;;;15.10;72.00;;;;;;5035667;28;20428;-66
2022/05/29 00:32:05;;;;;;;4.60;1.23;;;15.00;72.30;;;;;;5018147;28;20476;-65
2022/05/29 00:34:31;;;;;;;;;;;15.00;72.50;;;;;;5036182;28;20443;-66
2022/05/29 00:36:58;;;;;;;5.45;1.20;;;15.00;72.90;;;;;;5035471;28;19905;-65
2022/05/29 00:39:25;;;;;;;4.22;1.17;;;15.10;73.20;;;;;;5035151;28;20105;-65
2022/05/29 00:41:51;;;;;;;7.57;1.67;;;15.00;73.90;;;;;;5035306;28;20452;-65
2022/05/29 00:44:21;;;;;;;5.93;1.92;;;15.00;74.70;;;;;;5035416;28;20431;-65
2022/05/29 00:46:51;;;;;;;7.47;1.85;;;15.00;75.70;;;;;;5016815;28;20029;-65
2022/05/29 00:49:18;;;;;;;6.18;1.45;;;14.90;76.10;;;;;;5035248;28;20035;-65
2022/05/29 00:51:48;;;;;;;4.40;1.27;;;14.80;75.80;;;;;;5035273;28;20029;-65
2022/05/29 00:54:15;;;;;;;6.88;1.60;;;14.80;76.00;;;;;;5034883;28;20037;-65
2022/05/29 00:56:40;;;;;;;;;;;14.90;75.70;;;;;;5035269;28;20021;-65
2022/05/29 00:59:11;;;;;;;5.93;1.30;;;14.90;76.10;;;;;;5035148;28;20005;-65
2022/05/29 01:01:37;;;;;;;7.30;1.73;;;15.00;75.80;;;;;;5035001;28;20053;-65
2022/05/29 01:04:03;;;;;;;4.03;1.60;;;14.90;75.90;;;;;;5035046;28;20053;-64
2022/05/29 01:06:28;;;;;;;6.15;1.30;;;15.00;75.70;;;;;;5034745;28;20276;-64
2022/05/29 01:08:56;;;;;;;4.93;1.23;;;15.00;75.70;;;;;;5034911;28;20120;-65
2022/05/29 01:11:34;;;;;;;5.38;1.50;;;15.10;76.40;;;;;;5034637;28;20120;-65
2022/05/29 01:14:29;;;;;;;4.00;1.17;;;15.00;78.70;;;;;;5034810;28;20017;-65
2022/05/29 01:17:13;;;;;;;3.83;1.55;;;14.70;77.40;;;;;;5016833;28;20045;-65
2022/05/29 01:19:57;;;;;;;4.15;1.25;;;14.60;77.30;;;;;;5016755;28;20080;-65
2022/05/29 01:23:05;;;;;;;4.70;1.00;;;14.50;77.90;;;;;;5034340;28;20048;-65
2022/05/29 01:25:48;;;;;;;5.88;1.25;;;14.50;77.50;;;;;;5034355;28;20105;-65
2022/05/29 01:28:43;;;;;;;6.60;1.33;;;14.40;77.90;;;;;;5034359;28;20028;-65
2022/05/29 01:31:18;;;;;;;8.90;1.50;;;14.30;77.60;;;;;;5016392;28;20076;-65
2022/05/29 01:33:57;;;;;;;9.90;1.33;;;14.40;78.00;;;;;;5035403;28;20069;-65
2022/05/29 01:36:42;;;;;;;4.38;1.30;;;14.30;78.70;;;;;;5034223;28;20022;-65
2022/05/29 01:39:24;;;;;;;5.20;1.42;;;14.30;79.00;;;;;;5034357;28;20029;-65
2022/05/29 01:42:27;;;;;;;5.00;1.25;;;14.30;80.00;;;;;;5016321;28;20121;-66
2022/05/29 01:45:11;;;;;;;6.68;1.38;;;14.20;79.40;;;;;;5020827;28;20555;-66
2022/05/29 01:47:44;;;;;;;7.80;2.22;;;14.10;79.50;;;;;;5033902;28;20049;-66
2022/05/29 01:50:23;;;;;;;4.35;1.55;;;14.10;79.70;;;;;;5034235;28;20033;-65
2022/05/29 01:53:05;;;;;;;7.13;1.55;;;13.90;80.00;;;;;;5016075;28;20022;-65
2022/05/29 01:55:38;;;;;;;4.50;1.63;;;13.90;80.00;;;;;;5034082;28;20433;-65
2022/05/29 01:58:15;;;;;;;9.05;1.58;;;13.80;79.90;;;;;;5032863;28;20369;-65
2022/05/29 02:00:44;;;;;;;7.75;1.33;;;13.80;79.80;;;;;;5033928;28;20074;-65
2022/05/29 02:03:18;;;;;;;3.85;1.20;;;13.70;79.80;;;;;;5033661;28;20452;-66
2022/05/29 02:06:00;;;;;;;6.10;1.58;;;13.70;80.00;;;;;;5033442;28;20144;-66
2022/05/29 02:08:32;;;;;;;7.88;1.35;;;13.70;80.00;;;;;;5015676;28;20029;-66
2022/05/29 02:11:22;;;;;;;3.63;1.10;;;13.70;79.90;;;;;;5033789;28;20017;-65
2022/05/29 02:13:56;;;;;;;4.30;1.10;;;13.70;79.90;;;;;;5006416;28;20369;-65
2022/05/29 02:16:34;;;;;;;6.53;1.30;;;13.70;79.70;;;;;;5033518;28;20029;-65
2022/05/29 02:19:15;;;;;;;3.88;1.17;;;13.60;79.80;;;;;;5033660;28;20112;-65
2022/05/29 02:21:49;;;;;;;4.47;1.23;;;13.70;79.80;;;;;;5016130;28;20333;-64
2022/05/29 02:24:30;;;;;;;8.10;1.45;;;13.80;79.90;;;;;;5033536;28;20045;-65
2022/05/29 02:27:07;;;;;;;4.50;1.25;;;13.90;80.10;;;;;;5033547;28;20384;-64
2022/05/29 02:29:34;;;;;;;6.88;1.45;;;13.90;79.70;;;;;;5033413;28;20112;-64
2022/05/29 02:32:24;;;;;;;3.28;1.20;;;13.90;80.00;;;;;;5033300;28;20030;-64
2022/05/29 02:35:10;;;;;;;5.47;1.42;;;14.10;80.00;;;;;;5033863;28;20108;-64
2022/05/29 02:37:46;;;;;;;8.25;1.58;;;14.00;80.30;;;;;;5015950;28;20032;-64
2022/05/29 02:40:40;;;;;;;5.30;1.50;;;13.80;80.50;;;;;;5033917;28;20033;-65
2022/05/29 02:43:15;;;;;;;4.47;1.15;;;13.70;81.00;;;;;;5015755;28;20022;-65
2022/05/29 02:45:56;;;;;;;2.88;1.40;;;13.60;81.50;;;;;;5033446;28;20401;-65
2022/05/29 02:48:26;;;;;;;5.22;1.30;;;13.60;81.60;;;;;;5033345;28;20056;-65
2022/05/29 02:51:21;;;;;;;3.58;1.20;;;13.60;81.80;;;;;;5033880;28;20060;-65
2022/05/29 02:53:47;;;;;;;8.95;1.65;;;13.60;81.80;;;;;;5015512;28;20480;-65
2022/05/29 02:56:13;;;;;;;4.83;1.30;;;13.80;81.60;;;;;;5015614;28;20039;-65
2022/05/29 02:58:41;;;;;;;7.25;1.60;;;13.70;81.50;;;;;;5015486;28;20268;-65
2022/05/29 03:01:12;;;;;;;9.15;1.80;;;13.70;81.80;;;;;;5033484;28;20091;-65
2022/05/29 03:04:16;;;;;;;13.60;2.28;;;13.60;82.20;;;;;;5015582;28;20048;-65
2022/05/29 03:06:52;;;;;;;7.30;1.83;;;13.40;82.70;;;;;;5015599;28;20021;-65
2022/05/29 03:09:36;;;;;;;8.77;1.48;;;13.40;83.00;;;;;;5016654;28;20033;-65
2022/05/29 03:12:32;;;;;;;5.93;1.67;;;13.20;83.60;;;;;;5039893;28;20032;-65
2022/05/29 03:15:08;;;;;;;6.10;1.52;;;13.10;83.90;;;;;;5039237;28;20021;-65
2022/05/29 03:17:36;;;;;;;7.05;1.75;;;13.00;84.40;;;;;;5039525;28;20017;-65
2022/05/29 03:20:19;;;;;;;7.35;1.55;;;12.90;84.50;;;;;;5039272;28;20017;-65
2022/05/29 03:23:05;;;;;;;4.80;1.67;;;12.90;85.00;;;;;;5039513;28;20025;-65
2022/05/29 03:25:37;;;;;;;10.85;2.28;;;12.80;85.40;;;;;;5021351;28;20076;-65
2022/05/29 03:28:07;;;;;;;6.22;1.75;;;12.70;85.90;;;;;;5039356;28;20388;-65
2022/05/29 03:30:36;;;;;;;5.18;1.38;;;12.60;86.20;;;;;;5039553;28;20417;-64
2022/05/29 03:33:06;;;;;;;4.32;1.30;;;12.60;86.50;;;;;;5039304;28;20018;-65
2022/05/29 03:35:52;;;;;;;6.10;1.73;;;12.50;86.60;;;;;;5039541;28;20029;-66
2022/05/29 03:38:19;;;;;;;6.85;1.42;;;12.40;87.20;;;;;;5040017;28;20037;-66
2022/05/29 03:40:46;;;;;;;5.22;1.35;;;12.30;87.60;;;;;;5039994;28;20491;-66
2022/05/29 03:43:11;;;;;;;7.65;1.45;;;12.20;88.10;;;;;;5039367;28;20041;-66
2022/05/29 03:45:37;;;;;;;4.80;1.80;;;12.20;88.50;;;;;;5021690;28;20080;-65
2022/05/29 03:48:03;;;;;;;9.30;1.40;;;12.20;89.30;;;;;;5039230;28;20061;-65
2022/05/29 03:50:29;;;;;;;9.23;1.60;;;12.20;89.00;;;;;;5039364;28;20256;-65
2022/05/29 03:52:55;;;;;;;3.63;1.13;;;12.20;89.30;;;;;;5038919;28;20025;-66
2022/05/29 03:55:24;;;;;;;7.35;1.40;;;12.20;89.50;;;;;;5038905;28;20075;-66
2022/05/29 03:57:50;;;;;;;5.43;1.67;;;12.30;90.00;;;;;;5039616;28;20124;-66
2022/05/29 04:00:17;;;;;;;5.82;1.75;;;12.40;89.90;;;;;;5039963;28;20037;-66
2022/05/29 04:02:44;;;;;;;11.77;2.00;;;12.40;90.20;;;;;;5040619;28;20022;-65
2022/05/29 04:05:13;;;;;;;7.22;1.65;;;12.30;91.50;;;;;;5039640;28;20025;-65
2022/05/29 04:13:08;;;;;;;4.63;1.52;;;12.30;95.20;;;;;;5039967;28;20113;-65
2022/05/29 04:15:35;;;;;;;6.07;1.92;;;12.30;96.00;;;;;;5039943;28;20025;-65
2022/05/29 04:18:01;;;;;;;11.15;2.58;;;12.30;97.20;;;;;;5039979;28;20051;-65
2022/05/29 04:20:26;;;;;;;6.57;1.70;;;12.20;98.20;;;;;;5039969;28;20104;-65
2022/05/29 04:22:52;;;;;;;7.77;2.07;;;12.20;99.40;;;;;;5035711;28;20472;-65
2022/05/29 04:25:17;;;;;;;9.03;1.57;;;12.00;99.90;;;;;;5019123;28;20188;-65
2022/05/29 04:27:43;;;;;;;4.37;1.77;;;12.00;99.90;;;;;;5036131;28;20022;-65
2022/05/29 04:30:09;;;;;;;6.67;1.90;;;12.00;99.90;;;;;;5036881;28;20264;-65
2022/05/29 04:35:19;;;;;;;12.68;2.10;;;11.70;99.90;;;;;;5038581;28;20043;-65
2022/05/29 04:37:44;;;;;;;6.10;2.27;;;11.70;99.90;;;;;;5037699;28;20447;-65
2022/05/29 04:40:10;;;;;;;9.60;2.20;;;11.60;99.90;;;;;;5018845;28;20120;-65
2022/05/29 04:42:36;;;;;;;7.97;2.15;;;11.60;99.90;;;;;;5036251;28;20143;-65
2022/05/29 04:45:01;;;;;;;4.73;1.80;;;11.50;99.90;;;;;;5035795;28;20055;-65
2022/05/29 04:47:27;;;;;;;7.28;1.90;;;11.50;99.90;;;;;;5035257;28;20025;-65
2022/05/29 04:49:53;;;;;;;7.22;1.88;;;11.50;99.90;;;;;;5035602;28;20021;-65
2022/05/29 04:52:19;;;;;;;8.55;2.08;;;11.80;99.90;;;;;;5036069;28;20393;-65
2022/05/29 04:54:44;;;;;;;5.63;1.93;;;12.00;99.90;;;;;;5035707;28;20156;-66
2022/05/29 04:57:10;;;;;;;3.93;2.13;;;12.30;99.90;;;;;;5035668;28;20268;-65
2022/05/29 04:59:36;;;;;;;9.90;2.50;;;12.70;99.90;;;;;;5035268;28;20029;-65
2022/05/29 05:02:03;;;;;;;7.93;2.42;;;12.70;99.90;;;;;;5035597;28;20036;-65
2022/05/29 05:04:29;;;;;;;5.07;1.88;;;12.80;99.90;;;;;;5034632;28;20510;-65
2022/05/29 05:06:58;;;;;;;9.18;2.88;;;13.10;99.90;;;;;;5034647;28;20025;-65
2022/05/29 05:09:25;;;;;;;5.88;2.00;;;13.00;99.90;;;;;;5034529;28;20052;-65
2022/05/29 05:11:52;;;;;;;7.30;1.85;;;13.00;99.90;;;;;;5034723;28;20026;-65
2022/05/29 05:14:19;;;;;;;5.68;2.03;;;12.80;99.90;;;;;;5034585;28;20022;-65
2022/05/29 05:16:46;;;;;;;8.07;1.88;;;12.90;99.90;;;;;;5035109;28;20108;-65
2022/05/29 05:19:12;;;;;;;7.43;1.85;;;12.70;99.90;;;;;;5034710;28;20040;-65
2022/05/29 05:21:37;;;;;;;6.88;2.10;;;12.70;99.90;;;;;;5034551;28;20053;-65
2022/05/29 05:24:04;;;;;;;4.43;1.50;;;12.80;99.90;;;;;;5034703;28;20496;-65
2022/05/29 05:26:30;;;;;;;6.13;1.70;;;13.10;99.90;;;;;;5034451;28;20363;-65
2022/05/29 05:28:56;;;;;;;6.73;1.77;;;13.20;99.90;;;;;;5034459;28;20424;-65
2022/05/29 05:31:21;;;;;;;5.13;1.83;;;13.30;99.90;;;;;;5034654;28;20419;-65
2022/05/29 05:33:47;;;;;;;7.03;2.10;;;13.30;99.50;;;;;;5035080;28;20022;-63
2022/05/29 05:36:14;;;;;;;7.90;1.97;;;13.30;99.40;;;;;;5017232;28;20025;-65
2022/05/29 05:38:39;;;;;;;8.90;2.92;;;13.40;99.10;;;;;;5034293;28;20025;-66
2022/05/29 05:41:08;;;;;;;5.10;1.60;;;13.50;98.60;;;;;;5034771;28;20029;-65
2022/05/29 05:43:33;;;;;;;5.70;1.60;;;13.40;98.70;;;;;;5017988;28;20269;-65
2022/05/29 05:45:59;;;;;;;5.10;1.60;;;13.30;98.60;;;;;;5036080;28;20075;-65
2022/05/29 05:48:29;;;;;;;7.63;1.73;;;13.30;98.50;;;;;;5036141;28;20037;-65
2022/05/29 05:50:57;;;;;;;9.07;1.92;;;13.40;98.60;;;;;;5035616;28;20018;-66
2022/05/29 05:53:24;;;;;;;10.25;1.90;;;13.50;98.30;;;;;;5016918;28;20388;-66
2022/05/29 05:55:50;;;;;;;10.02;1.70;;;13.40;97.90;;;;;;5034478;28;20032;-66
2022/05/29 05:58:16;;;;;;;6.45;1.60;;;13.50;98.50;;;;;;5016357;28;20066;-66
2022/05/29 06:00:49;;;;;;;8.38;1.95;;;13.30;98.40;;;;;;5033731;28;20073;-66
2022/05/29 06:03:16;;;;;;;7.55;1.70;;;13.20;99.90;;;;;;5015971;28;20034;-66
2022/05/29 06:05:41;;;;;;;7.75;1.83;;;13.10;99.90;;;;;;5033936;28;20037;-66
2022/05/29 06:08:08;;;;;;;6.22;2.00;;;13.00;99.90;;;;;;5033517;28;20034;-66
2022/05/29 06:10:33;;;;;;;;;;;13.10;99.90;;;;;;5034355;28;20186;-65
2022/05/29 06:13:04;;;;;;;6.00;1.90;;;13.10;99.90;;;;;;5034257;28;19905;-65
2022/05/29 06:15:31;;;;;;;9.73;2.38;;;13.10;99.90;;;;;;5016076;28;20384;-65
2022/05/29 06:17:56;;;;;;;11.43;2.22;;;13.20;99.90;;;;;;5033545;28;20041;-66
2022/05/29 06:20:24;;;;;;;9.40;2.60;;;13.30;99.90;;;;;;5033660;28;20478;-65
2022/05/29 06:22:50;;;;;;;9.48;2.10;;;13.40;99.90;;;;;;5033465;28;20021;-65
2022/05/29 06:25:15;;;;;;;5.93;1.88;;;13.50;99.70;;;;;;5033636;28;20025;-65
2022/05/29 06:27:43;;;;;;;9.43;2.25;;;13.50;99.40;;;;;;5033916;28;20029;-65
2022/05/29 06:30:12;;;;;;;7.03;1.73;;;13.60;99.80;;;;;;5033535;28;20140;-65
2022/05/29 06:32:39;;;;;;;10.70;2.38;;;13.70;99.90;;;;;;5034030;28;20104;-66
2022/05/29 06:35:08;;;;;;;7.03;1.90;;;13.70;99.90;;;;;;5015885;28;20018;-65
2022/05/29 06:37:33;;;;;;;5.22;2.08;;;13.70;99.90;;;;;;5016346;28;20025;-67
2022/05/29 06:39:59;;;;;;;7.80;2.13;;;13.70;99.90;;;;;;5034286;28;20113;-66
2022/05/29 06:42:26;;;;;;;6.63;2.10;;;13.70;99.80;;;;;;5034345;28;20021;-65
2022/05/29 06:44:51;;;;;;;8.10;1.85;;;13.60;99.90;;;;;;5033748;28;20506;-66
2022/05/29 06:47:18;;;;;;;8.20;1.70;;;13.80;99.90;;;;;;5033874;28;20022;-66
2022/05/29 06:49:47;;;;;;;6.20;2.15;;;13.60;99.90;;;;;;5033771;28;20017;-66
2022/05/29 06:52:13;;;;;;;6.80;1.80;;;13.70;99.90;;;;;;5033816;28;20115;-66
2022/05/29 06:54:39;;;;;;;6.67;1.80;;;13.70;99.90;;;;;;5034327;28;20025;-65
2022/05/29 06:57:08;;;;;;;5.85;1.95;;;13.90;99.90;;;;;;5033847;28;20088;-64
2022/05/29 07:07:58;;;;;;;7.53;2.60;;;14.00;99.90;;;;;;5034071;28;20399;-64
2022/05/29 07:10:25;;;;;;;9.00;1.87;;;14.10;99.70;;;;;;5034186;28;20026;-66
2022/05/29 07:12:51;;;;;;;7.97;1.98;;;14.00;99.70;;;;;;5034249;28;20322;-62
2022/05/29 07:15:18;;;;;;;8.38;1.80;;;14.10;99.10;;;;;;5034663;28;20075;-64
2022/05/29 07:17:44;;;;;;;8.25;1.83;;;14.10;99.00;;;;;;5034252;28;20036;-63
2022/05/29 07:20:10;;;;;;;7.32;1.35;;;14.10;99.00;;;;;;5034537;28;20100;-62
2022/05/29 07:22:38;;;;;;;;;;;14.10;98.70;;;;;;5034198;28;20030;-64
2022/05/29 07:25:05;;;;;;;5.53;1.58;;;14.10;98.60;;;;;;5033748;28;19905;-64
2022/05/29 07:27:30;;;;;;;7.07;1.70;;;13.90;98.00;;;;;;5034194;28;20048;-65
2022/05/29 07:29:56;;;;;;;8.03;1.70;;;13.90;98.10;;;;;;5033933;28;20026;-65
2022/05/29 07:32:23;;;;;;;7.83;1.37;;;13.90;98.90;;;;;;5033856;28;20121;-64
2022/05/29 07:34:49;;;;;;;5.32;1.73;;;13.90;98.80;;;;;;5034685;28;20025;-66
2022/05/29 07:37:16;;;;;;;6.25;1.77;;;13.80;99.40;;;;;;5033774;28;20025;-64
2022/05/29 07:39:48;;;;;;;8.00;1.92;;;13.70;99.90;;;;;;5033258;28;20109;-65
2022/05/29 07:44:59;;;;;;;11.57;1.73;;;13.60;99.90;;;;;;5033086;28;20438;-64
2022/05/29 07:47:29;;;;;;;7.32;1.63;;;13.40;99.90;;;;;;5032835;28;20025;-65
2022/05/29 07:49:58;;;;;;;6.10;1.80;;;13.40;99.90;;;;;;5032908;28;20034;-65
2022/05/29 07:52:23;;;;;;;5.47;1.40;;;13.30;99.90;;;;;;5015045;28;20032;-62
2022/05/29 07:54:49;;;;;;;4.43;1.58;;;13.20;99.90;;;;;;5033160;28;20029;-62
2022/05/29 07:57:15;;;;;;;6.17;1.20;;;13.00;99.90;;;;;;5034386;28;20097;-63
2022/05/29 07:59:41;;;;;;;9.80;3.70;;;12.70;99.90;;;;;;5036173;28;20034;-64
2022/05/29 08:02:07;;;;;;;5.93;1.87;;;12.50;99.90;;;;;;5036516;28;20052;-64
2022/05/29 08:04:32;;;;;;;8.25;1.92;;;12.30;99.90;;;;;;5036557;28;20048;-63
2022/05/29 08:06:58;;;;;;;4.90;1.50;;;12.20;99.90;;;;;;5036339;28;20105;-65
2022/05/29 08:09:24;;;;;;;4.23;1.80;;;12.10;99.90;;;;;;5035749;28;20037;-64
2022/05/29 08:11:49;;;;;;;3.03;1.17;;;12.00;99.90;;;;;;5036036;28;20094;-64
2022/05/29 08:14:16;;;;;;;7.13;1.35;;;12.00;99.90;;;;;;5035904;28;20272;-64
2022/05/29 08:16:41;;;;;;;4.85;1.38;;;11.90;99.90;;;;;;5017833;28;20135;-63
2022/05/29 08:19:07;;;;;;;3.37;1.27;;;11.90;99.90;;;;;;5035713;28;20048;-62
2022/05/29 08:21:34;;;;;;;6.00;1.20;;;11.80;99.90;;;;;;5035873;28;20108;-63
2022/05/29 08:32:13;;;;;;;3.83;1.02;;;12.30;99.90;;;;;;5035813;28;20060;-63
2022/05/29 08:34:39;;;;;;;4.53;1.20;;;12.30;99.90;;;;;;5036060;28;20033;-64
2022/05/29 08:37:05;;;;;;;8.27;2.00;;;12.50;99.90;;;;;;5035625;28;20057;-63
2022/05/29 08:39:32;;;;;;;3.60;1.17;;;12.60;99.90;;;;;;5035705;28;20424;-63
2022/05/29 08:41:59;;;;;;;4.55;1.10;;;12.90;99.90;;;;;;5035990;28;20048;-64
2022/05/29 08:44:46;;;;;;;6.35;1.27;;;13.30;99.90;;;;;;5036442;28;20033;-63
2022/05/29 08:47:12;;;;;;;;;;;13.70;99.90;;;;;;5037343;28;20060;-62
2022/05/29 08:49:43;;;;;;;3.15;1.00;;;14.00;99.90;;;;;;5035921;28;19904;-63
2022/05/29 08:52:39;;;;;;;4.38;1.25;;;14.00;99.90;;;;;;5037176;28;20380;-63
2022/05/29 08:55:25;;;;;;;7.10;1.55;;;14.00;99.90;;;;;;5035904;28;20606;-63
2022/05/29 08:58:17;;;;;;;3.70;1.80;;;14.10;99.90;;;;;;5017577;28;20029;-64
2022/05/29 09:00:49;;;;;;;2.75;1.27;;;14.30;99.90;;;;;;5035324;28;20022;-64
2022/05/29 09:03:41;;;;;;;5.40;1.65;;;14.20;99.90;;;;;;5035131;28;20025;-65
2022/05/29 09:06:30;;;;;;;4.10;1.02;;;14.40;99.90;;;;;;5035312;28;20028;-65
2022/05/29 09:08:55;;;;;;;6.18;1.77;;;14.30;99.90;;;;;;5062324;23;20034;-61
2022/05/29 09:11:47;;;;;;;6.23;1.43;;;14.10;99.90;;;;;;5076906;28;20036;-61
2022/05/29 09:14:39;;;;;;;5.13;1.40;;;14.20;99.90;;;;;;5095145;28;20047;-62
2022/05/29 09:17:18;;;;;;;2.67;1.45;;;14.20;99.90;;;;;;5095292;28;20067;-62
2022/05/29 09:19:51;;;;;;;6.38;1.75;;;14.40;99.90;;;;;;5095016;28;20063;-62
2022/05/29 09:22:34;;;;;;;4.43;1.20;;;14.40;99.90;;;;;;5095223;28;20020;-61
2022/05/29 09:25:03;;;;;;;4.40;1.42;;;14.40;99.90;;;;;;5095240;28;20153;-63
2022/05/29 09:27:30;;;;;;;6.25;1.40;;;14.40;99.90;;;;;;5094766;28;20120;-62
2022/05/29 09:29:55;;;;;;;;;;;14.40;99.90;;;;;;5095043;28;20016;-61
2022/05/29 09:32:24;;;;;;;5.40;1.83;;;14.30;99.90;;;;;;5076383;28;20389;-62
2022/05/29 09:34:59;;;;;;;5.38;1.60;;;14.20;99.90;;;;;;5094351;28;20347;-61
2022/05/29 09:37:48;;;;;;;4.30;1.42;;;14.60;99.90;;;;;;5094766;28;20420;-61
2022/05/29 09:40:24;;;;;;;4.25;1.60;;;14.60;99.90;;;;;;5094268;28;20516;-63
2022/05/29 09:42:52;;;;;;;6.40;1.67;;;14.60;99.50;;;;;;5094603;28;20016;-64
2022/05/29 09:45:32;;;;;;;5.93;1.30;;;15.30;99.90;;;;;;5094148;28;20020;-64
2022/05/29 09:50:53;;;;;;;5.18;1.40;;;17.40;93.50;;;;;;5094380;28;20027;-65
2022/05/29 09:53:23;;;;;;;4.88;1.23;;;18.00;93.80;;;;;;5094513;28;20031;-63
2022/05/29 09:56:00;;;;;;;3.80;1.00;;;19.40;90.50;;;;;;5076178;28;20089;-63
2022/05/29 09:58:44;;;;;;;2.80;0.80;;;20.40;86.10;;;;;;5094217;28;20034;-64
2022/05/29 10:01:10;;;;;;;2.25;1.08;;;21.10;85.80;;;;;;5075728;28;20466;-65
2022/05/29 10:03:52;;;;;;;2.38;0.90;;;21.60;82.40;;;;;;5075647;28;20048;-65
2022/05/29 10:06:24;;;;;;;4.13;1.35;;;21.90;79.80;;;;;;5075551;28;20023;-65
2022/05/29 10:08:52;;;;;;;2.28;1.00;;;21.90;79.00;;;;;;5093810;28;20028;-62
2022/05/29 10:11:22;;;;;;;2.65;0.93;;;21.90;78.80;;;;;;5094213;28;20034;-64
2022/05/29 10:13:50;;;;;;;1.52;0.80;;;22.90;76.20;;;;;;5093862;28;20099;-65
2022/05/29 10:16:31;;;;;;;2.65;0.90;;;23.70;71.30;;;;;;5093680;28;20075;-64
2022/05/29 10:18:57;;;;;;;4.47;1.27;;;24.60;70.00;;;;;;5093163;28;20024;-63
2022/05/29 10:21:27;;;;;;;2.42;0.90;;;25.80;69.30;;;;;;5093506;28;20035;-64
2022/05/29 10:24:10;;;;;;;2.03;0.70;;;26.40;63.50;;;;;;5093590;28;20059;-65
2022/05/29 10:26:36;;;;;;;2.28;1.00;;;26.80;61.90;;;;;;5093744;28;20076;-65
2022/05/29 10:29:19;;;;;;;4.47;1.20;;;26.40;61.60;;;;;;5093570;28;20020;-63
2022/05/29 10:31:49;;;;;;;4.28;1.30;;;25.30;59.90;;;;;;5093923;28;20031;-64
2022/05/29 10:34:23;;;;;;;3.50;0.90;;;23.90;62.30;;;;;;5093664;28;20031;-64
2022/05/29 10:36:49;;;;;;;4.70;1.20;;;25.10;61.90;;;;;;5075422;28;20028;-61
2022/05/29 10:39:22;;;;;;;4.25;1.42;;;25.80;61.20;;;;;;5093516;28;20031;-63
2022/05/29 10:41:50;;;;;;;6.30;1.75;;;26.10;58.50;;;;;;5075385;28;20032;-64
2022/05/29 10:44:41;;;;;;;4.88;1.90;;;26.10;58.20;;;;;;5093313;28;20492;-63
2022/05/29 10:47:25;;;;;;;3.05;1.10;;;24.90;57.70;;;;;;5093569;28;20048;-64
2022/05/29 10:50:04;;;;;;;4.38;1.70;;;25.00;57.70;;;;;;5094071;28;20123;-65
2022/05/29 10:52:51;;;;;;;4.20;1.38;;;24.20;58.10;;;;;;5075467;28;20441;-65
2022/05/29 10:55:40;;;;;;;4.35;1.23;;;23.50;58.70;;;;;;5093387;28;20385;-63
2022/05/29 10:58:42;;;;;;;5.07;1.30;;;21.90;60.30;;;;;;5093316;28;20024;-64
2022/05/29 11:04:20;;;;;;;4.03;1.00;;;22.00;61.90;;;;;;5094219;28;20077;-64
2022/05/29 11:07:01;;;;;;;4.45;1.33;;;20.90;63.70;;;;;;5076372;28;20028;-65
2022/05/29 11:10:03;;;;;;;3.30;1.40;;;19.90;66.90;;;;;;5094392;28;20105;-64
2022/05/29 11:13:02;;;;;;;5.38;1.30;;;19.30;67.30;;;;;;5076016;28;20031;-62
2022/05/29 11:15:39;;;;;;;4.30;1.00;;;18.80;69.30;;;;;;5089136;28;20047;-60
2022/05/29 11:18:39;;;;;;;2.90;1.50;;;18.80;68.50;;;;;;5093477;28;20161;-61
2022/05/29 11:21:32;;;;;;;2.03;0.80;;;18.80;68.90;;;;;;5093644;28;20462;-62
2022/05/29 11:24:55;;;;;;;2.60;1.02;;;18.70;69.50;;;;;;5074987;28;20080;-62
2022/05/29 11:27:46;;;;;;;2.55;0.98;;;19.20;69.50;;;;;;5048166;28;20048;-63
2022/05/29 11:30:27;;;;;;;3.80;1.35;;;19.20;68.90;;;;;;5093017;28;20089;-64
2022/05/29 11:33:07;;;;;;;3.97;1.23;;;18.90;69.40;;;;;;5078926;28;20020;-62
2022/05/29 11:35:41;;;;;;;3.70;1.10;;;18.60;69.50;;;;;;5097072;28;20020;-63
2022/05/29 11:38:23;;;;;;;4.03;1.23;;;18.60;69.30;;;;;;5096910;28;20359;-64
2022/05/29 11:41:04;;;;;;;3.50;1.10;;;18.40;69.30;;;;;;5097215;28;20028;-63
2022/05/29 11:43:52;;;;;;;5.38;1.10;;;18.00;71.00;;;;;;5079063;28;20021;-63
2022/05/29 11:52:26;;;;;;;4.30;1.30;;;17.80;69.90;;;;;;5096782;28;20028;-62
2022/05/29 11:55:15;;;;;;;4.15;1.27;;;17.80;69.60;;;;;;5096888;28;20013;-63
2022/05/29 11:57:57;;;;;;;3.05;1.10;;;17.90;69.90;;;;;;5096979;28;20119;-63
2022/05/29 12:00:43;;;;;;;4.60;1.08;;;18.30;69.70;;;;;;5096913;28;20103;-62
2022/05/29 12:03:18;;;;;;;6.00;1.27;;;18.40;68.00;;;;;;5097213;28;20081;-62
2022/05/29 12:06:12;;;;;;;6.28;1.48;;;18.20;68.30;;;;;;5097145;28;20027;-63
2022/05/29 12:08:47;;;;;;;6.40;1.38;;;18.00;68.50;;;;;;5097116;28;20031;-63
2022/05/29 12:11:43;;;;;;;4.05;1.45;;;18.20;68.80;;;;;;5097253;28;20051;-63
2022/05/29 12:14:21;;;;;;;3.17;0.90;;;18.10;68.60;;;;;;5096419;28;20109;-62
2022/05/29 12:16:51;;;;;;;5.57;1.10;;;18.10;67.40;;;;;;5097394;28;20027;-61
2022/05/29 12:19:27;;;;;;;2.80;1.33;;;18.10;66.50;;;;;;5096738;28;20028;-62
2022/05/29 12:22:00;;;;;;;3.40;0.90;;;18.20;65.20;;;;;;5096512;28;20189;-62
2022/05/29 12:24:29;;;;;;;2.45;1.00;;;17.80;64.50;;;;;;5096245;28;20125;-64
2022/05/29 12:26:59;;;;;;;5.47;1.20;;;17.70;64.70;;;;;;5095921;28;20024;-62
2022/05/29 12:29:49;;;;;;;2.30;1.17;;;17.50;65.80;;;;;;5096141;28;20016;-62
2022/05/29 12:32:31;;;;;;;6.07;1.20;;;17.10;67.20;;;;;;5079178;28;20429;-63
2022/05/29 12:35:02;;;;;;;4.78;1.25;;;17.20;68.00;;;;;;5096548;28;20493;-63
2022/05/29 12:37:45;;;;;;;4.63;1.58;;;17.50;69.20;;;;;;5096504;28;20478;-63
2022/05/29 12:40:48;;;;;;;7.53;1.58;;;17.90;68.10;;;;;;5095914;28;20028;-63
2022/05/29 12:43:41;;;;;;;5.55;1.38;;;18.30;68.20;;;;;;5096302;28;20028;-62
2022/05/29 12:46:24;;;;;;;5.13;1.58;;;18.30;70.10;;;;;;5096312;28;20024;-63
2022/05/29 12:49:23;;;;;;;6.53;1.30;;;18.30;70.60;;;;;;5077908;28;20020;-61
2022/05/29 12:52:07;;;;;;;6.28;1.50;;;18.30;70.80;;;;;;5096092;28;20027;-62
2022/05/29 12:54:39;;;;;;;3.92;1.40;;;18.20;70.10;;;;;;5095624;28;20102;-61
2022/05/29 12:57:29;;;;;;;3.78;1.20;;;18.10;70.70;;;;;;5095767;28;20024;-63
2022/05/29 13:00:10;;;;;;;3.05;1.02;;;17.90;69.50;;;;;;5095730;28;20106;-63
2022/05/29 13:03:03;;;;;;;4.68;1.20;;;17.60;66.50;;;;;;5095638;28;20020;-62
2022/05/29 13:05:50;;;;;;;5.72;1.20;;;17.70;67.90;;;;;;5095133;28;20028;-62
2022/05/29 13:08:54;;;;;;;6.93;1.95;;;17.60;72.40;;;;;;5096549;28;20072;-62
2022/05/29 13:11:24;;;;;;;5.13;1.98;;;17.20;73.10;;;;;;5037317;28;20032;-63
2022/05/29 13:13:55;;;;;;;8.65;1.35;;;17.30;73.70;;;;;;5077777;28;20059;-63
2022/05/29 13:16:28;;;;;;;5.10;1.25;;;17.40;73.60;;;;;;5097477;28;20020;-64
2022/05/29 13:19:14;;;;;;;4.95;1.70;;;17.30;72.30;;;;;;5078701;28;20419;-63
2022/05/29 13:21:58;;;;;;;4.82;1.10;;;17.30;71.90;;;;;;5095339;28;20422;-63
2022/05/29 13:24:36;;;;;;;3.78;1.00;;;17.50;72.50;;;;;;5095323;28;20031;-63
2022/05/29 13:27:16;;;;;;;4.50;1.20;;;17.30;72.60;;;;;;5076968;28;20024;-63
2022/05/29 13:29:45;;;;;;;4.93;1.23;;;17.20;70.20;;;;;;5096238;28;20021;-62
2022/05/29 13:32:13;;;;;;;4.40;1.40;;;17.10;68.10;;;;;;5076788;28;20067;-63
2022/05/29 13:34:49;;;;;;;4.10;1.35;;;16.90;68.90;;;;;;5094931;28;20028;-62
2022/05/29 13:37:47;;;;;;;3.28;1.38;;;16.90;68.30;;;;;;5094674;28;20386;-63
2022/05/29 13:40:31;;;;;;;3.53;0.85;;;17.00;68.00;;;;;;5094600;28;20535;-63
2022/05/29 13:43:19;;;;;;;3.33;1.52;;;17.10;68.20;;;;;;5076306;28;20401;-62
2022/05/29 13:45:45;;;;;;;4.35;1.10;;;17.10;66.20;;;;;;5081845;28;20036;-61
2022/05/29 13:48:26;;;;;;;3.25;0.95;;;17.00;67.50;;;;;;5076469;28;20020;-63
2022/05/29 13:51:02;;;;;;;5.97;1.35;;;17.20;67.00;;;;;;5094625;28;20088;-63
2022/05/29 13:53:50;;;;;;;6.85;1.60;;;17.30;65.60;;;;;;5094728;28;20016;-62
2022/05/29 13:56:18;;;;;;;6.28;1.40;;;17.30;66.10;;;;;;5095143;28;20046;-64
2022/05/29 14:04:47;;;;;;;4.82;0.93;;;17.50;65.80;;;;;;5094588;28;20035;-63
2022/05/29 14:07:15;;;;;;;4.88;1.65;;;17.50;65.80;;;;;;5094128;28;20400;-62